Time,TemperatureF,DewpointF,PressureIn,WindDirection,WindDirectionDegrees,WindSpeedMPH,WindSpeedGustMPH,Humidity,HourlyPrecipIn,Conditions,Clouds,dailyrainin,SoftwareType,DateUTC
2013-08-25 00:12:00,48.3,48.0,30.32,SE,142,0.0,0.0,97,0.00,,,0.00,weatherlink.com 1.10,2013-08-25 04:12:00,
2013-08-25 00:27:00,48.8,48.0,30.32,SE,143,0.0,0.0,98,0.00,,,0.00,weatherlink.com 1.10,2013-08-25 04:27:00,
2013-08-25 00:42:00,48.6,48.0,30.32,SE,142,0.0,0.0,97,0.00,,,0.00,weatherlink.com 1.10,2013-08-25 04:42:00,
2013-08-25 00:57:00,48.5,48.0,30.31,SE,142,0.0,0.0,98,0.00,,,0.00,weatherlink.com 1.10,2013-08-25 04:57:00,
2013-08-25 01:12:00,48.3,48.0,30.31,SE,143,0.0,0.0,98,0.00,,,0.00,weatherlink.com 1.10,2013-08-25 05:12:00,
2013-08-25 01:28:00,48.0,48.0,30.31,SE,143,0.0,0.0,98,0.00,,,0.00,weatherlink.com 1.10,2013-08-25 05:28:00,
2013-08-25 01:43:00,47.7,47.0,30.31,SE,143,0.0,0.0,98,0.00,,,0.00,weatherlink.com 1.10,2013-08-25 05:43:00,
2013-08-25 01:58:00,47.5,47.0,30.31,SE,142,0.0,0.0,98,0.00,,,0.00,weatherlink.com 1.10,2013-08-25 05:58:00,
2013-08-25 02:13:00,46.9,46.0,30.30,SE,143,0.0,0.0,97,0.00,,,0.00,weatherlink.com 1.10,2013-08-25 06:13:00,
2013-08-25 02:28:00,46.8,46.0,30.30,SE,142,0.0,0.0,98,0.00,,,0.00,weatherlink.com 1.10,2013-08-25 06:28:00,
2013-08-25 02:43:00,46.3,46.0,30.30,SE,143,0.0,0.0,98,0.00,,,0.00,weatherlink.com 1.10,2013-08-25 06:43:00,
2013-08-25 02:58:00,45.9,45.0,30.30,SE,143,0.0,0.0,98,0.00,,,0.00,weatherlink.com 1.10,2013-08-25 06:58:00,
2013-08-25 03:13:00,46.1,46.0,30.30,SE,142,0.0,0.0,98,0.00,,,0.00,weatherlink.com 1.10,2013-08-25 07:13:00,
2013-08-25 03:28:00,46.0,46.0,30.30,SE,142,0.0,0.0,98,0.00,,,0.00,weatherlink.com 1.10,2013-08-25 07:28:00,
2013-08-25 03:43:00,46.5,46.0,30.30,SE,143,0.0,0.0,98,0.00,,,0.00,weatherlink.com 1.10,2013-08-25 07:43:00,
2013-08-25 03:58:00,46.6,46.0,30.30,SE,143,0.0,0.0,98,0.00,,,0.00,weatherlink.com 1.10,2013-08-25 07:58:00,
2013-08-25 04:13:00,46.5,46.0,30.31,SE,143,0.0,0.0,98,0.00,,,0.00,weatherlink.com 1.10,2013-08-25 08:13:00,
2013-08-25 04:28:00,47.5,47.0,30.32,SE,142,0.0,0.0,98,0.00,,,0.00,weatherlink.com 1.10,2013-08-25 08:28:00,
2013-08-25 04:43:00,47.7,47.0,30.32,SE,142,0.0,0.0,98,0.00,,,0.00,weatherlink.com 1.10,2013-08-25 08:43:00,
2013-08-25 04:58:00,47.7,47.0,30.32,SE,143,0.0,0.0,98,0.00,,,0.00,weatherlink.com 1.10,2013-08-25 08:58:00,
2013-08-25 05:13:00,47.6,47.0,30.32,SE,143,0.0,0.0,98,0.00,,,0.00,weatherlink.com 1.10,2013-08-25 09:13:00,
2013-08-25 05:28:00,47.2,47.0,30.33,SE,143,0.0,0.0,98,0.00,,,0.00,weatherlink.com 1.10,2013-08-25 09:28:00,
2013-08-25 05:43:00,47.2,47.0,30.33,SE,142,0.0,0.0,98,0.00,,,0.00,weatherlink.com 1.10,2013-08-25 09:43:00,
2013-08-25 05:58:00,47.3,47.0,30.34,SE,142,0.0,0.0,98,0.00,,,0.00,weatherlink.com 1.10,2013-08-25 09:58:00,
2013-08-25 06:13:00,46.9,46.0,30.34,SE,143,0.0,0.0,98,0.00,,,0.00,weatherlink.com 1.10,2013-08-25 10:13:00,
2013-08-25 06:28:00,47.4,47.0,30.35,SE,142,0.0,0.0,98,0.00,,,0.00,weatherlink.com 1.10,2013-08-25 10:28:00,
2013-08-25 06:43:00,47.5,47.0,30.35,SE,142,0.0,0.0,98,0.00,,,0.00,weatherlink.com 1.10,2013-08-25 10:43:00,
2013-08-25 06:58:00,47.7,47.0,30.35,SE,143,0.0,0.0,98,0.00,,,0.00,weatherlink.com 1.10,2013-08-25 10:58:00,
2013-08-25 07:13:00,48.4,48.0,30.35,SE,142,0.0,0.0,98,0.00,,,0.00,weatherlink.com 1.10,2013-08-25 11:13:00,
2013-08-25 07:28:00,49.7,49.0,30.36,SE,143,0.0,0.0,98,0.00,,,0.00,weatherlink.com 1.10,2013-08-25 11:28:00,
2013-08-25 07:43:00,52.8,52.0,30.35,SE,143,0.0,0.0,98,0.00,,,0.00,weatherlink.com 1.10,2013-08-25 11:43:00,
2013-08-25 07:58:00,56.3,56.0,30.35,SE,141,0.0,0.0,98,0.00,,,0.00,weatherlink.com 1.10,2013-08-25 11:58:00,
2013-08-25 08:13:00,59.0,59.0,30.34,SE,141,0.0,0.0,98,0.00,,,0.00,weatherlink.com 1.10,2013-08-25 12:13:00,
2013-08-25 08:28:00,61.2,60.0,30.34,SE,133,0.0,0.0,97,0.00,,,0.00,weatherlink.com 1.10,2013-08-25 12:28:00,
2013-08-25 08:43:00,65.3,62.0,30.34,ENE,76,0.0,0.0,88,0.00,,,0.00,weatherlink.com 1.10,2013-08-25 12:43:00,
2013-08-25 08:59:00,67.6,61.0,30.34,West,271,0.0,2.0,80,0.00,,,0.00,weatherlink.com 1.10,2013-08-25 12:59:00,
2013-08-25 09:14:00,69.6,59.0,30.34,West,280,0.0,4.0,70,0.00,,,0.00,weatherlink.com 1.10,2013-08-25 13:14:00,
2013-08-25 09:29:00,70.8,57.0,30.34,WSW,253,0.0,5.0,61,0.00,,,0.00,weatherlink.com 1.10,2013-08-25 13:29:00,
2013-08-25 09:44:00,71.5,58.0,30.34,WSW,243,3.0,6.0,62,0.00,,,0.00,weatherlink.com 1.10,2013-08-25 13:44:00,
2013-08-25 09:59:00,72.6,57.0,30.34,SW,235,0.0,5.0,58,0.00,,,0.00,weatherlink.com 1.10,2013-08-25 13:59:00,
2013-08-25 10:14:00,73.3,57.0,30.34,West,262,2.0,4.0,56,0.00,,,0.00,weatherlink.com 1.10,2013-08-25 14:14:00,
2013-08-25 10:29:00,73.8,54.0,30.34,SW,226,2.0,4.0,51,0.00,,,0.00,weatherlink.com 1.10,2013-08-25 14:29:00,
2013-08-25 10:44:00,73.9,51.0,30.33,South,188,1.0,4.0,44,0.00,,,0.00,weatherlink.com 1.10,2013-08-25 14:44:00,
2013-08-25 10:59:00,74.6,52.0,30.33,WNW,303,1.0,4.0,46,0.00,,,0.00,weatherlink.com 1.10,2013-08-25 14:59:00,
2013-08-25 11:14:00,75.2,55.0,30.32,ENE,72,3.0,5.0,49,0.00,,,0.00,weatherlink.com 1.10,2013-08-25 15:14:00,
2013-08-25 11:29:00,75.1,52.0,30.31,WNW,287,1.0,8.0,45,0.00,,,0.00,weatherlink.com 1.10,2013-08-25 15:29:00,
2013-08-25 11:44:00,75.2,54.0,30.31,WNW,291,2.0,10.0,48,0.00,,,0.00,weatherlink.com 1.10,2013-08-25 15:44:00,
2013-08-25 11:59:00,76.0,52.0,30.30,East,92,2.0,5.0,43,0.00,,,0.00,weatherlink.com 1.10,2013-08-25 15:59:00,
2013-08-25 12:14:00,75.9,52.0,30.29,SW,224,6.0,8.0,43,0.00,,,0.00,weatherlink.com 1.10,2013-08-25 16:14:00,
2013-08-25 12:29:00,76.3,53.0,30.29,SE,133,1.0,11.0,44,0.00,,,0.00,weatherlink.com 1.10,2013-08-25 16:29:00,
2013-08-25 12:44:00,76.0,52.0,30.29,SE,136,2.0,7.0,44,0.00,,,0.00,weatherlink.com 1.10,2013-08-25 16:44:00,
2013-08-25 12:59:00,76.7,50.0,30.28,SSE,148,1.0,6.0,39,0.00,,,0.00,weatherlink.com 1.10,2013-08-25 16:59:00,
2013-08-25 13:14:00,76.6,52.0,30.28,WNW,302,4.0,7.0,43,0.00,,,0.00,weatherlink.com 1.10,2013-08-25 17:14:00,
2013-08-25 13:29:00,76.6,50.0,30.28,SE,143,0.0,5.0,39,0.00,,,0.00,weatherlink.com 1.10,2013-08-25 17:29:00,
2013-08-25 13:44:00,77.0,50.0,30.28,SE,136,1.0,6.0,39,0.00,,,0.00,weatherlink.com 1.10,2013-08-25 17:44:00,
2013-08-25 13:59:00,77.5,51.0,30.27,ESE,115,3.0,6.0,40,0.00,,,0.00,weatherlink.com 1.10,2013-08-25 17:59:00,
2013-08-25 14:14:00,77.3,52.0,30.27,SW,226,4.0,8.0,41,0.00,,,0.00,weatherlink.com 1.10,2013-08-25 18:14:00,
2013-08-25 14:29:00,77.6,51.0,30.27,SW,231,1.0,6.0,40,0.00,,,0.00,weatherlink.com 1.10,2013-08-25 18:29:00,
2013-08-25 14:44:00,77.7,52.0,30.26,West,273,5.0,7.0,41,0.00,,,0.00,weatherlink.com 1.10,2013-08-25 18:44:00,
2013-08-25 14:59:00,78.5,55.0,30.26,SW,231,2.0,5.0,44,0.00,,,0.00,weatherlink.com 1.10,2013-08-25 18:59:00,
2013-08-25 15:14:00,78.4,53.0,30.25,WNW,300,3.0,6.0,42,0.00,,,0.00,weatherlink.com 1.10,2013-08-25 19:14:00,
2013-08-25 15:29:00,78.0,53.0,30.24,WNW,288,2.0,5.0,42,0.00,,,0.00,weatherlink.com 1.10,2013-08-25 19:29:00,
2013-08-25 15:44:00,78.4,53.0,30.24,South,189,2.0,4.0,42,0.00,,,0.00,weatherlink.com 1.10,2013-08-25 19:44:00,
2013-08-25 15:59:00,78.1,56.0,30.23,NNW,333,5.0,5.0,46,0.00,,,0.00,weatherlink.com 1.10,2013-08-25 19:59:00,
2013-08-25 16:14:00,77.6,56.0,30.23,WSW,253,1.0,7.0,48,0.00,,,0.00,weatherlink.com 1.10,2013-08-25 20:14:00,
2013-08-25 16:29:00,77.9,56.0,30.23,West,259,3.0,7.0,47,0.00,,,0.00,weatherlink.com 1.10,2013-08-25 20:29:00,
2013-08-25 16:45:00,77.5,56.0,30.22,WSW,250,2.0,5.0,47,0.00,,,0.00,weatherlink.com 1.10,2013-08-25 20:45:00,
2013-08-25 17:00:00,77.7,57.0,30.22,WSW,240,1.0,7.0,49,0.00,,,0.00,weatherlink.com 1.10,2013-08-25 21:00:00,
2013-08-25 17:15:00,77.6,56.0,30.21,WSW,246,1.0,5.0,48,0.00,,,0.00,weatherlink.com 1.10,2013-08-25 21:15:00,
2013-08-25 17:30:00,78.1,58.0,30.21,SW,231,2.0,4.0,51,0.00,,,0.00,weatherlink.com 1.10,2013-08-25 21:30:00,
2013-08-25 17:45:00,77.0,57.0,30.21,NW,304,2.0,7.0,50,0.00,,,0.00,weatherlink.com 1.10,2013-08-25 21:45:00,
2013-08-25 18:00:00,76.8,56.0,30.20,West,269,1.0,7.0,49,0.00,,,0.00,weatherlink.com 1.10,2013-08-25 22:00:00,
2013-08-25 18:15:00,76.2,57.0,30.19,WNW,300,0.0,4.0,52,0.00,,,0.00,weatherlink.com 1.10,2013-08-25 22:15:00,
2013-08-25 18:30:00,75.1,57.0,30.19,SW,227,0.0,5.0,54,0.00,,,0.00,weatherlink.com 1.10,2013-08-25 22:30:00,
2013-08-25 18:45:00,73.0,59.0,30.19,SE,125,1.0,1.0,61,0.00,,,0.00,weatherlink.com 1.10,2013-08-25 22:45:00,
2013-08-25 19:00:00,70.0,59.0,30.18,SE,125,0.0,1.0,68,0.00,,,0.00,weatherlink.com 1.10,2013-08-25 23:00:00,
2013-08-25 19:15:00,68.2,59.0,30.18,SE,126,0.0,1.0,72,0.00,,,0.00,weatherlink.com 1.10,2013-08-25 23:15:00,
2013-08-25 19:30:00,66.7,58.0,30.18,SE,126,0.0,1.0,74,0.00,,,0.00,weatherlink.com 1.10,2013-08-25 23:30:00,
2013-08-25 19:45:00,65.1,58.0,30.18,SE,127,0.0,0.0,77,0.00,,,0.00,weatherlink.com 1.10,2013-08-25 23:45:00,
2013-08-25 20:00:00,63.7,57.0,30.18,SE,127,0.0,0.0,80,0.00,,,0.00,weatherlink.com 1.10,2013-08-26 00:00:00,
2013-08-25 20:15:00,62.6,57.0,30.18,SE,127,0.0,0.0,83,0.00,,,0.00,weatherlink.com 1.10,2013-08-26 00:15:00,
2013-08-25 20:30:00,62.0,57.0,30.18,SE,126,0.0,0.0,84,0.00,,,0.00,weatherlink.com 1.10,2013-08-26 00:30:00,
2013-08-25 20:45:00,62.7,57.0,30.18,SE,127,0.0,0.0,82,0.00,,,0.00,weatherlink.com 1.10,2013-08-26 00:45:00,
2013-08-25 21:00:00,63.3,57.0,30.18,ESE,110,0.0,1.0,81,0.00,,,0.00,weatherlink.com 1.10,2013-08-26 01:00:00,
2013-08-25 21:15:00,63.2,57.0,30.18,ESE,110,0.0,1.0,80,0.00,,,0.00,weatherlink.com 1.10,2013-08-26 01:15:00,
2013-08-25 21:30:00,63.5,57.0,30.18,ESE,108,0.0,2.0,79,0.00,,,0.00,weatherlink.com 1.10,2013-08-26 01:30:00,
2013-08-25 21:45:00,64.1,57.0,30.17,SE,139,0.0,1.0,79,0.00,,,0.00,weatherlink.com 1.10,2013-08-26 01:45:00,
2013-08-25 22:00:00,64.0,57.0,30.17,SE,133,0.0,1.0,78,0.00,,,0.00,weatherlink.com 1.10,2013-08-26 02:00:00,
2013-08-25 22:15:00,63.9,57.0,30.17,ENE,75,0.0,1.0,79,0.00,,,0.00,weatherlink.com 1.10,2013-08-26 02:15:00,
2013-08-25 22:30:00,64.3,58.0,30.17,SW,229,0.0,2.0,79,0.00,,,0.00,weatherlink.com 1.10,2013-08-26 02:30:00,
2013-08-25 22:45:00,64.4,57.0,30.17,WSW,238,1.0,2.0,76,0.00,,,0.00,weatherlink.com 1.10,2013-08-26 02:45:00,
2013-08-25 23:00:00,66.6,57.0,30.17,NNE,26,1.0,4.0,70,0.00,,,0.00,weatherlink.com 1.10,2013-08-26 03:00:00,
2013-08-25 23:15:00,67.6,56.0,30.16,NE,37,1.0,6.0,67,0.00,,,0.00,weatherlink.com 1.10,2013-08-26 03:15:00,
2013-08-25 23:30:00,67.9,56.0,30.16,West,262,4.0,5.0,65,0.00,,,0.00,weatherlink.com 1.10,2013-08-26 03:30:00,
2013-08-25 23:45:00,68.3,56.0,30.15,WSW,257,1.0,6.0,64,0.00,,,0.00,weatherlink.com 1.10,2013-08-26 03:45:00,